sensor_id;sensor_type;location;lat;lon;timestamp;temperature;humidity
10964;DHT22;5534;48.784;9.190;2023-06-22T00:01:58;23.40;99.90
10964;DHT22;5534;48.784;9.190;2023-06-22T00:04:24;23.50;99.90
10964;DHT22;5534;48.784;9.190;2023-06-22T00:06:50;23.60;99.90
10964;DHT22;5534;48.784;9.190;2023-06-22T00:09:16;23.70;99.90
10964;DHT22;5534;48.784;9.190;2023-06-22T00:11:42;23.70;99.90
10964;DHT22;5534;48.784;9.190;2023-06-22T00:14:08;23.60;99.90
10964;DHT22;5534;48.784;9.190;2023-06-22T00:16:34;23.70;99.90
10964;DHT22;5534;48.784;9.190;2023-06-22T00:19:00;23.70;99.90
10964;DHT22;5534;48.784;9.190;2023-06-22T00:21:27;23.80;99.90
10964;DHT22;5534;48.784;9.190;2023-06-22T00:23:53;23.90;99.90
10964;DHT22;5534;48.784;9.190;2023-06-22T00:26:19;23.90;99.90
10964;DHT22;5534;48.784;9.190;2023-06-22T00:28:45;23.90;99.90
10964;DHT22;5534;48.784;9.190;2023-06-22T00:31:10;23.90;99.90
10964;DHT22;5534;48.784;9.190;2023-06-22T00:33:36;23.90;99.90
10964;DHT22;5534;48.784;9.190;2023-06-22T00:36:02;23.80;99.90
10964;DHT22;5534;48.784;9.190;2023-06-22T00:38:29;23.60;99.90
10964;DHT22;5534;48.784;9.190;2023-06-22T00:40:55;23.60;99.90
10964;DHT22;5534;48.784;9.190;2023-06-22T00:43:20;23.70;99.90
10964;DHT22;5534;48.784;9.190;2023-06-22T00:45:46;23.40;99.90
10964;DHT22;5534;48.784;9.190;2023-06-22T00:48:13;23.40;99.90
10964;DHT22;5534;48.784;9.190;2023-06-22T00:50:40;23.40;99.90
10964;DHT22;5534;48.784;9.190;2023-06-22T00:53:07;23.60;99.90
10964;DHT22;5534;48.784;9.190;2023-06-22T00:55:38;23.60;99.90
10964;DHT22;5534;48.784;9.190;2023-06-22T00:58:05;23.40;99.90
10964;DHT22;5534;48.784;9.190;2023-06-22T01:00:33;23.50;99.90
10964;DHT22;5534;48.784;9.190;2023-06-22T01:02:59;23.40;99.90
10964;DHT22;5534;48.784;9.190;2023-06-22T01:05:25;23.30;99.90
10964;DHT22;5534;48.784;9.190;2023-06-22T01:16:15;23.30;99.90
10964;DHT22;5534;48.784;9.190;2023-06-22T01:18:43;23.10;99.90
10964;DHT22;5534;48.784;9.190;2023-06-22T01:21:14;22.80;99.90
10964;DHT22;5534;48.784;9.190;2023-06-22T01:29:18;23.10;99.90
10964;DHT22;5534;48.784;9.190;2023-06-22T01:31:45;22.80;99.90
10964;DHT22;5534;48.784;9.190;2023-06-22T01:34:14;22.70;99.90
10964;DHT22;5534;48.784;9.190;2023-06-22T01:36:40;22.70;99.90
10964;DHT22;5534;48.784;9.190;2023-06-22T01:39:07;22.90;99.90
10964;DHT22;5534;48.784;9.190;2023-06-22T01:41:38;23.00;99.90
10964;DHT22;5534;48.784;9.190;2023-06-22T01:44:08;23.30;99.90
10964;DHT22;5534;48.784;9.190;2023-06-22T01:46:38;23.30;99.90
10964;DHT22;5534;48.784;9.190;2023-06-22T01:49:05;23.30;99.90
10964;DHT22;5534;48.784;9.190;2023-06-22T01:51:31;23.30;99.90
10964;DHT22;5534;48.784;9.190;2023-06-22T01:53:57;22.90;99.90
10964;DHT22;5534;48.784;9.190;2023-06-22T01:56:23;23.10;99.90
10964;DHT22;5534;48.784;9.190;2023-06-22T02:01:43;23.10;99.90
10964;DHT22;5534;48.784;9.190;2023-06-22T02:04:13;22.90;99.90
10964;DHT22;5534;48.784;9.190;2023-06-22T02:06:45;22.80;99.90
10964;DHT22;5534;48.784;9.190;2023-06-22T02:09:16;22.90;99.90
10964;DHT22;5534;48.784;9.190;2023-06-22T02:11:44;23.00;99.90
10964;DHT22;5534;48.784;9.190;2023-06-22T02:14:12;23.10;99.90
10964;DHT22;5534;48.784;9.190;2023-06-22T02:16:38;23.20;99.90
10964;DHT22;5534;48.784;9.190;2023-06-22T02:19:04;23.10;99.90
10964;DHT22;5534;48.784;9.190;2023-06-22T02:21:31;23.20;99.90
10964;DHT22;5534;48.784;9.190;2023-06-22T02:23:58;23.20;99.90
10964;DHT22;5534;48.784;9.190;2023-06-22T02:26:25;23.20;99.90
10964;DHT22;5534;48.784;9.190;2023-06-22T02:28:51;23.20;99.90
10964;DHT22;5534;48.784;9.190;2023-06-22T02:31:17;23.20;99.90
10964;DHT22;5534;48.784;9.190;2023-06-22T02:33:43;23.20;99.90
10964;DHT22;5534;48.784;9.190;2023-06-22T02:36:10;23.20;99.90
10964;DHT22;5534;48.784;9.190;2023-06-22T02:38:41;23.20;99.90
10964;DHT22;5534;48.784;9.190;2023-06-22T02:41:16;23.00;99.90
10964;DHT22;5534;48.784;9.190;2023-06-22T02:43:45;23.00;99.90
10964;DHT22;5534;48.784;9.190;2023-06-22T02:46:12;22.90;99.90
10964;DHT22;5534;48.784;9.190;2023-06-22T02:48:39;22.70;99.90
10964;DHT22;5534;48.784;9.190;2023-06-22T02:51:05;22.40;99.90
10964;DHT22;5534;48.784;9.190;2023-06-22T02:53:31;22.60;99.90
10964;DHT22;5534;48.784;9.190;2023-06-22T02:55:57;22.70;99.90
10964;DHT22;5534;48.784;9.190;2023-06-22T02:58:23;22.60;99.90
10964;DHT22;5534;48.784;9.190;2023-06-22T03:00:50;22.60;99.90
10964;DHT22;5534;48.784;9.190;2023-06-22T03:03:19;22.60;99.90
10964;DHT22;5534;48.784;9.190;2023-06-22T03:05:45;22.60;99.90
10964;DHT22;5534;48.784;9.190;2023-06-22T03:08:10;22.70;99.90
10964;DHT22;5534;48.784;9.190;2023-06-22T03:10:36;22.70;99.90
10964;DHT22;5534;48.784;9.190;2023-06-22T03:13:03;23.00;99.90
10964;DHT22;5534;48.784;9.190;2023-06-22T03:15:28;23.00;99.90
10964;DHT22;5534;48.784;9.190;2023-06-22T03:17:58;23.00;99.90
10964;DHT22;5534;48.784;9.190;2023-06-22T03:20:24;23.00;99.90
10964;DHT22;5534;48.784;9.190;2023-06-22T03:22:50;22.90;99.90
10964;DHT22;5534;48.784;9.190;2023-06-22T03:25:16;22.80;99.90
10964;DHT22;5534;48.784;9.190;2023-06-22T03:27:42;22.80;99.90
10964;DHT22;5534;48.784;9.190;2023-06-22T03:30:11;22.80;99.90
10964;DHT22;5534;48.784;9.190;2023-06-22T03:32:37;22.70;99.90
10964;DHT22;5534;48.784;9.190;2023-06-22T03:35:03;22.70;99.90
10964;DHT22;5534;48.784;9.190;2023-06-22T03:37:29;22.70;99.90
10964;DHT22;5534;48.784;9.190;2023-06-22T03:39:55;22.80;99.90
10964;DHT22;5534;48.784;9.190;2023-06-22T03:42:21;22.80;99.90
10964;DHT22;5534;48.784;9.190;2023-06-22T03:44:47;22.70;99.90
10964;DHT22;5534;48.784;9.190;2023-06-22T03:47:13;22.70;99.90
10964;DHT22;5534;48.784;9.190;2023-06-22T03:49:38;22.70;99.90
10964;DHT22;5534;48.784;9.190;2023-06-22T03:52:05;22.60;99.90
10964;DHT22;5534;48.784;9.190;2023-06-22T03:54:31;22.70;99.90
10964;DHT22;5534;48.784;9.190;2023-06-22T03:56:57;22.70;99.90
10964;DHT22;5534;48.784;9.190;2023-06-22T03:59:23;22.60;99.90
10964;DHT22;5534;48.784;9.190;2023-06-22T04:01:49;22.60;99.90
10964;DHT22;5534;48.784;9.190;2023-06-22T04:04:17;22.30;99.90
10964;DHT22;5534;48.784;9.190;2023-06-22T04:06:43;22.30;99.90
10964;DHT22;5534;48.784;9.190;2023-06-22T04:09:09;22.40;99.90
10964;DHT22;5534;48.784;9.190;2023-06-22T04:11:34;22.50;99.90
10964;DHT22;5534;48.784;9.190;2023-06-22T04:14:00;22.80;99.90
10964;DHT22;5534;48.784;9.190;2023-06-22T04:16:26;22.90;99.90
10964;DHT22;5534;48.784;9.190;2023-06-22T04:18:52;22.80;99.90
10964;DHT22;5534;48.784;9.190;2023-06-22T04:21:18;22.80;99.90
10964;DHT22;5534;48.784;9.190;2023-06-22T04:23:47;22.70;99.90
10964;DHT22;5534;48.784;9.190;2023-06-22T04:26:13;22.70;99.90
10964;DHT22;5534;48.784;9.190;2023-06-22T04:28:42;22.70;99.90
10964;DHT22;5534;48.784;9.190;2023-06-22T04:31:08;22.70;99.90
10964;DHT22;5534;48.784;9.190;2023-06-22T04:33:33;22.70;99.90
10964;DHT22;5534;48.784;9.190;2023-06-22T04:35:59;22.80;99.90
10964;DHT22;5534;48.784;9.190;2023-06-22T04:38:29;22.80;99.90
10964;DHT22;5534;48.784;9.190;2023-06-22T04:40:58;22.80;99.90
10964;DHT22;5534;48.784;9.190;2023-06-22T04:43:24;22.70;99.90
10964;DHT22;5534;48.784;9.190;2023-06-22T04:45:50;22.70;99.90
10964;DHT22;5534;48.784;9.190;2023-06-22T04:48:19;22.90;99.90
10964;DHT22;5534;48.784;9.190;2023-06-22T04:50:46;22.90;99.90
10964;DHT22;5534;48.784;9.190;2023-06-22T04:53:12;23.00;99.90
10964;DHT22;5534;48.784;9.190;2023-06-22T04:55:39;22.90;99.90
10964;DHT22;5534;48.784;9.190;2023-06-22T04:58:07;22.90;99.90
10964;DHT22;5534;48.784;9.190;2023-06-22T05:00:33;22.80;99.90
10964;DHT22;5534;48.784;9.190;2023-06-22T05:03:01;22.80;99.90
10964;DHT22;5534;48.784;9.190;2023-06-22T05:05:30;22.90;99.90
10964;DHT22;5534;48.784;9.190;2023-06-22T05:07:57;23.00;99.90
10964;DHT22;5534;48.784;9.190;2023-06-22T05:10:26;23.00;99.90
10964;DHT22;5534;48.784;9.190;2023-06-22T05:12:52;23.00;99.90
10964;DHT22;5534;48.784;9.190;2023-06-22T05:15:18;23.00;99.90
10964;DHT22;5534;48.784;9.190;2023-06-22T05:17:48;23.00;99.90
10964;DHT22;5534;48.784;9.190;2023-06-22T05:20:14;23.00;99.90
10964;DHT22;5534;48.784;9.190;2023-06-22T05:22:43;23.00;99.90
10964;DHT22;5534;48.784;9.190;2023-06-22T05:25:10;23.00;99.90
10964;DHT22;5534;48.784;9.190;2023-06-22T05:27:36;23.00;99.90
10964;DHT22;5534;48.784;9.190;2023-06-22T05:30:09;23.00;99.90
10964;DHT22;5534;48.784;9.190;2023-06-22T05:32:36;22.90;99.90
10964;DHT22;5534;48.784;9.190;2023-06-22T05:35:02;22.90;99.90
10964;DHT22;5534;48.784;9.190;2023-06-22T05:37:28;23.10;99.90
10964;DHT22;5534;48.784;9.190;2023-06-22T05:39:54;23.30;99.90
10964;DHT22;5534;48.784;9.190;2023-06-22T05:42:21;23.40;99.90
10964;DHT22;5534;48.784;9.190;2023-06-22T05:44:47;23.50;99.90
10964;DHT22;5534;48.784;9.190;2023-06-22T05:47:13;23.60;99.90
10964;DHT22;5534;48.784;9.190;2023-06-22T05:49:40;23.60;99.90
10964;DHT22;5534;48.784;9.190;2023-06-22T05:52:05;23.60;99.90
10964;DHT22;5534;48.784;9.190;2023-06-22T05:54:31;23.70;99.90
10964;DHT22;5534;48.784;9.190;2023-06-22T05:56:57;23.80;99.90
10964;DHT22;5534;48.784;9.190;2023-06-22T05:59:23;23.80;99.90
10964;DHT22;5534;48.784;9.190;2023-06-22T06:01:48;23.80;99.90
10964;DHT22;5534;48.784;9.190;2023-06-22T06:04:18;23.70;99.90
10964;DHT22;5534;48.784;9.190;2023-06-22T06:06:44;23.80;99.90
10964;DHT22;5534;48.784;9.190;2023-06-22T06:09:10;23.80;99.90
10964;DHT22;5534;48.784;9.190;2023-06-22T06:11:37;23.90;99.90
10964;DHT22;5534;48.784;9.190;2023-06-22T06:14:03;24.20;99.90
10964;DHT22;5534;48.784;9.190;2023-06-22T06:16:29;24.30;99.90
10964;DHT22;5534;48.784;9.190;2023-06-22T06:18:55;24.60;99.90
10964;DHT22;5534;48.784;9.190;2023-06-22T06:21:21;24.90;99.90
10964;DHT22;5534;48.784;9.190;2023-06-22T06:23:47;25.70;99.90
10964;DHT22;5534;48.784;9.190;2023-06-22T06:26:13;26.80;99.90
10964;DHT22;5534;48.784;9.190;2023-06-22T06:28:42;27.70;99.90
10964;DHT22;5534;48.784;9.190;2023-06-22T06:31:08;28.30;99.90
10964;DHT22;5534;48.784;9.190;2023-06-22T06:33:34;29.10;99.90
10964;DHT22;5534;48.784;9.190;2023-06-22T06:36:01;30.00;99.90
10964;DHT22;5534;48.784;9.190;2023-06-22T06:38:31;30.30;99.90
10964;DHT22;5534;48.784;9.190;2023-06-22T06:40:57;30.60;99.90
10964;DHT22;5534;48.784;9.190;2023-06-22T06:43:23;31.00;99.90
10964;DHT22;5534;48.784;9.190;2023-06-22T06:45:50;31.50;99.90
10964;DHT22;5534;48.784;9.190;2023-06-22T06:48:16;32.00;99.90
10964;DHT22;5534;48.784;9.190;2023-06-22T06:50:43;32.20;99.90
10964;DHT22;5534;48.784;9.190;2023-06-22T06:53:09;32.20;99.90
10964;DHT22;5534;48.784;9.190;2023-06-22T06:55:35;32.10;99.90
10964;DHT22;5534;48.784;9.190;2023-06-22T06:58:02;31.80;99.90
10964;DHT22;5534;48.784;9.190;2023-06-22T07:00:29;32.00;99.90
10964;DHT22;5534;48.784;9.190;2023-06-22T07:02:55;32.30;99.90
10964;DHT22;5534;48.784;9.190;2023-06-22T07:05:21;32.10;99.90
10964;DHT22;5534;48.784;9.190;2023-06-22T07:07:47;32.00;99.90
10964;DHT22;5534;48.784;9.190;2023-06-22T07:10:12;31.80;99.90
10964;DHT22;5534;48.784;9.190;2023-06-22T07:12:38;31.70;99.90
10964;DHT22;5534;48.784;9.190;2023-06-22T07:15:05;31.60;99.90
10964;DHT22;5534;48.784;9.190;2023-06-22T07:17:33;31.20;99.90
10964;DHT22;5534;48.784;9.190;2023-06-22T07:20:01;30.70;99.90
10964;DHT22;5534;48.784;9.190;2023-06-22T07:22:26;30.60;99.90
10964;DHT22;5534;48.784;9.190;2023-06-22T07:24:52;30.50;99.90
10964;DHT22;5534;48.784;9.190;2023-06-22T07:27:18;30.50;99.90
10964;DHT22;5534;48.784;9.190;2023-06-22T07:29:45;30.50;99.90
10964;DHT22;5534;48.784;9.190;2023-06-22T07:32:10;30.90;99.90
10964;DHT22;5534;48.784;9.190;2023-06-22T07:34:36;31.20;99.90
10964;DHT22;5534;48.784;9.190;2023-06-22T07:37:02;31.00;99.90
10964;DHT22;5534;48.784;9.190;2023-06-22T07:39:28;30.80;99.90
10964;DHT22;5534;48.784;9.190;2023-06-22T07:41:54;30.70;99.90
10964;DHT22;5534;48.784;9.190;2023-06-22T07:44:20;30.60;99.90
10964;DHT22;5534;48.784;9.190;2023-06-22T07:46:46;30.50;99.90
10964;DHT22;5534;48.784;9.190;2023-06-22T07:49:11;30.60;99.90
10964;DHT22;5534;48.784;9.190;2023-06-22T07:51:37;30.60;99.90
10964;DHT22;5534;48.784;9.190;2023-06-22T07:54:06;30.40;99.90
10964;DHT22;5534;48.784;9.190;2023-06-22T07:56:32;30.40;99.90
10964;DHT22;5534;48.784;9.190;2023-06-22T07:58:59;30.50;99.90
10964;DHT22;5534;48.784;9.190;2023-06-22T08:01:26;30.40;99.90
10964;DHT22;5534;48.784;9.190;2023-06-22T08:03:52;30.70;99.90
10964;DHT22;5534;48.784;9.190;2023-06-22T08:06:17;30.70;99.90
10964;DHT22;5534;48.784;9.190;2023-06-22T08:08:43;30.60;99.90
10964;DHT22;5534;48.784;9.190;2023-06-22T08:11:09;30.40;99.90
10964;DHT22;5534;48.784;9.190;2023-06-22T08:13:35;30.60;99.90
10964;DHT22;5534;48.784;9.190;2023-06-22T08:16:01;30.40;99.90
10964;DHT22;5534;48.784;9.190;2023-06-22T08:18:28;30.10;99.90
10964;DHT22;5534;48.784;9.190;2023-06-22T08:20:53;30.00;99.90
10964;DHT22;5534;48.784;9.190;2023-06-22T08:23:19;30.40;99.90
10964;DHT22;5534;48.784;9.190;2023-06-22T08:25:45;30.30;99.90
10964;DHT22;5534;48.784;9.190;2023-06-22T08:28:11;30.00;99.90
10964;DHT22;5534;48.784;9.190;2023-06-22T08:30:38;29.40;99.90
10964;DHT22;5534;48.784;9.190;2023-06-22T08:33:04;29.10;99.90
10964;DHT22;5534;48.784;9.190;2023-06-22T08:35:30;28.50;99.90
10964;DHT22;5534;48.784;9.190;2023-06-22T08:37:56;28.30;99.90
10964;DHT22;5534;48.784;9.190;2023-06-22T08:40:22;28.30;99.90
10964;DHT22;5534;48.784;9.190;2023-06-22T08:42:48;28.60;99.90
10964;DHT22;5534;48.784;9.190;2023-06-22T08:45:15;28.90;99.90
10964;DHT22;5534;48.784;9.190;2023-06-22T08:47:41;29.10;99.90
10964;DHT22;5534;48.784;9.190;2023-06-22T08:50:09;29.30;99.90
10964;DHT22;5534;48.784;9.190;2023-06-22T08:52:36;29.50;99.90
10964;DHT22;5534;48.784;9.190;2023-06-22T08:55:02;29.30;99.90
10964;DHT22;5534;48.784;9.190;2023-06-22T08:57:28;29.20;99.90
10964;DHT22;5534;48.784;9.190;2023-06-22T08:59:55;29.40;99.90
10964;DHT22;5534;48.784;9.190;2023-06-22T09:02:24;29.50;99.90
10964;DHT22;5534;48.784;9.190;2023-06-22T09:04:50;29.80;99.90
10964;DHT22;5534;48.784;9.190;2023-06-22T09:07:21;30.00;99.90
10964;DHT22;5534;48.784;9.190;2023-06-22T09:09:49;29.80;99.90
10964;DHT22;5534;48.784;9.190;2023-06-22T09:12:14;29.80;99.90
10964;DHT22;5534;48.784;9.190;2023-06-22T09:14:40;29.60;99.90
10964;DHT22;5534;48.784;9.190;2023-06-22T09:17:06;29.50;99.90
10964;DHT22;5534;48.784;9.190;2023-06-22T09:19:32;29.60;99.90
10964;DHT22;5534;48.784;9.190;2023-06-22T09:21:58;29.70;99.90
10964;DHT22;5534;48.784;9.190;2023-06-22T09:24:24;30.00;99.90
10964;DHT22;5534;48.784;9.190;2023-06-22T09:26:50;30.40;99.90
10964;DHT22;5534;48.784;9.190;2023-06-22T09:29:16;30.70;99.90
10964;DHT22;5534;48.784;9.190;2023-06-22T09:31:42;30.70;99.90
10964;DHT22;5534;48.784;9.190;2023-06-22T09:34:08;30.80;99.90
10964;DHT22;5534;48.784;9.190;2023-06-22T09:36:34;31.00;99.90
10964;DHT22;5534;48.784;9.190;2023-06-22T09:39:00;30.90;99.90
10964;DHT22;5534;48.784;9.190;2023-06-22T09:41:36;30.90;99.90
10964;DHT22;5534;48.784;9.190;2023-06-22T09:44:02;31.00;99.90
10964;DHT22;5534;48.784;9.190;2023-06-22T09:46:28;31.10;99.90
10964;DHT22;5534;48.784;9.190;2023-06-22T09:48:54;31.20;99.90
10964;DHT22;5534;48.784;9.190;2023-06-22T09:51:20;31.30;99.90
10964;DHT22;5534;48.784;9.190;2023-06-22T09:53:47;31.40;99.90
10964;DHT22;5534;48.784;9.190;2023-06-22T09:56:13;31.30;99.90
10964;DHT22;5534;48.784;9.190;2023-06-22T09:58:45;31.20;99.90
10964;DHT22;5534;48.784;9.190;2023-06-22T10:01:12;31.30;99.90
10964;DHT22;5534;48.784;9.190;2023-06-22T10:03:40;31.20;99.90
10964;DHT22;5534;48.784;9.190;2023-06-22T10:06:07;31.20;99.90
10964;DHT22;5534;48.784;9.190;2023-06-22T10:08:33;31.10;99.90
10964;DHT22;5534;48.784;9.190;2023-06-22T10:11:00;30.90;99.90
10964;DHT22;5534;48.784;9.190;2023-06-22T10:13:26;30.70;99.90
10964;DHT22;5534;48.784;9.190;2023-06-22T10:15:52;30.60;99.90
10964;DHT22;5534;48.784;9.190;2023-06-22T10:18:18;30.10;99.90
10964;DHT22;5534;48.784;9.190;2023-06-22T10:20:49;30.20;99.90
10964;DHT22;5534;48.784;9.190;2023-06-22T10:23:21;30.20;99.90
10964;DHT22;5534;48.784;9.190;2023-06-22T10:25:48;30.30;99.90
10964;DHT22;5534;48.784;9.190;2023-06-22T10:28:14;30.30;99.90
10964;DHT22;5534;48.784;9.190;2023-06-22T10:30:40;30.60;99.90
10964;DHT22;5534;48.784;9.190;2023-06-22T10:33:07;30.60;99.90
10964;DHT22;5534;48.784;9.190;2023-06-22T10:35:34;30.70;99.90
10964;DHT22;5534;48.784;9.190;2023-06-22T10:37:59;30.70;99.90
10964;DHT22;5534;48.784;9.190;2023-06-22T10:40:25;30.80;99.90
10964;DHT22;5534;48.784;9.190;2023-06-22T10:42:52;30.70;99.90
10964;DHT22;5534;48.784;9.190;2023-06-22T10:45:18;30.90;99.90
10964;DHT22;5534;48.784;9.190;2023-06-22T10:47:44;31.10;99.90
10964;DHT22;5534;48.784;9.190;2023-06-22T10:50:10;31.10;99.90
10964;DHT22;5534;48.784;9.190;2023-06-22T10:52:37;31.00;99.90
10964;DHT22;5534;48.784;9.190;2023-06-22T10:55:04;31.00;99.90
10964;DHT22;5534;48.784;9.190;2023-06-22T10:57:30;31.20;99.90
10964;DHT22;5534;48.784;9.190;2023-06-22T10:59:55;31.00;99.90
10964;DHT22;5534;48.784;9.190;2023-06-22T11:02:21;30.90;99.90
10964;DHT22;5534;48.784;9.190;2023-06-22T11:04:47;30.90;99.90
10964;DHT22;5534;48.784;9.190;2023-06-22T11:07:13;30.90;99.90
10964;DHT22;5534;48.784;9.190;2023-06-22T11:09:39;30.70;99.90
10964;DHT22;5534;48.784;9.190;2023-06-22T11:12:05;30.70;99.90
10964;DHT22;5534;48.784;9.190;2023-06-22T11:14:33;30.70;99.90
10964;DHT22;5534;48.784;9.190;2023-06-22T11:17:01;30.70;99.90
10964;DHT22;5534;48.784;9.190;2023-06-22T11:19:27;30.70;99.90
10964;DHT22;5534;48.784;9.190;2023-06-22T11:21:53;30.60;99.90
10964;DHT22;5534;48.784;9.190;2023-06-22T11:24:19;30.70;99.90
10964;DHT22;5534;48.784;9.190;2023-06-22T11:26:45;30.60;99.90
10964;DHT22;5534;48.784;9.190;2023-06-22T11:29:11;30.60;99.90
10964;DHT22;5534;48.784;9.190;2023-06-22T11:31:37;30.40;99.90
10964;DHT22;5534;48.784;9.190;2023-06-22T11:34:03;30.40;99.90
10964;DHT22;5534;48.784;9.190;2023-06-22T11:36:29;30.30;99.90
10964;DHT22;5534;48.784;9.190;2023-06-22T11:38:58;30.40;99.90
10964;DHT22;5534;48.784;9.190;2023-06-22T11:41:24;30.40;99.90
10964;DHT22;5534;48.784;9.190;2023-06-22T11:43:49;30.70;99.90
10964;DHT22;5534;48.784;9.190;2023-06-22T11:46:15;30.80;99.90
10964;DHT22;5534;48.784;9.190;2023-06-22T11:48:41;30.90;99.90
10964;DHT22;5534;48.784;9.190;2023-06-22T11:51:07;30.90;99.90
10964;DHT22;5534;48.784;9.190;2023-06-22T11:53:34;31.00;99.90
10964;DHT22;5534;48.784;9.190;2023-06-22T11:56:00;30.90;99.90
10964;DHT22;5534;48.784;9.190;2023-06-22T11:58:27;30.80;99.90
10964;DHT22;5534;48.784;9.190;2023-06-22T12:00:53;30.70;99.90
10964;DHT22;5534;48.784;9.190;2023-06-22T12:03:19;30.50;99.90
10964;DHT22;5534;48.784;9.190;2023-06-22T12:05:47;30.60;99.90
10964;DHT22;5534;48.784;9.190;2023-06-22T12:08:13;30.70;99.90
10964;DHT22;5534;48.784;9.190;2023-06-22T12:10:42;30.60;99.90
10964;DHT22;5534;48.784;9.190;2023-06-22T12:13:11;30.50;99.90
10964;DHT22;5534;48.784;9.190;2023-06-22T12:15:37;30.60;99.90
10964;DHT22;5534;48.784;9.190;2023-06-22T12:18:02;30.70;99.90
10964;DHT22;5534;48.784;9.190;2023-06-22T12:20:30;30.60;99.90
10964;DHT22;5534;48.784;9.190;2023-06-22T12:22:55;30.70;99.90
10964;DHT22;5534;48.784;9.190;2023-06-22T12:25:26;30.60;99.90
10964;DHT22;5534;48.784;9.190;2023-06-22T12:27:51;30.60;99.90
10964;DHT22;5534;48.784;9.190;2023-06-22T12:30:20;30.50;99.90
10964;DHT22;5534;48.784;9.190;2023-06-22T12:32:46;30.50;99.90
10964;DHT22;5534;48.784;9.190;2023-06-22T12:35:12;30.60;99.90
10964;DHT22;5534;48.784;9.190;2023-06-22T12:37:40;30.60;99.90
10964;DHT22;5534;48.784;9.190;2023-06-22T12:40:07;30.70;99.90
10964;DHT22;5534;48.784;9.190;2023-06-22T12:42:33;30.60;99.90
10964;DHT22;5534;48.784;9.190;2023-06-22T12:44:59;30.50;99.90
10964;DHT22;5534;48.784;9.190;2023-06-22T12:47:24;30.40;99.90
10964;DHT22;5534;48.784;9.190;2023-06-22T12:49:50;30.40;99.90
10964;DHT22;5534;48.784;9.190;2023-06-22T12:52:16;30.40;99.90
10964;DHT22;5534;48.784;9.190;2023-06-22T12:54:43;30.50;99.90
10964;DHT22;5534;48.784;9.190;2023-06-22T12:57:09;30.40;99.90
10964;DHT22;5534;48.784;9.190;2023-06-22T12:59:34;30.50;99.90
10964;DHT22;5534;48.784;9.190;2023-06-22T13:02:00;30.40;99.90
10964;DHT22;5534;48.784;9.190;2023-06-22T13:04:28;30.40;99.90
10964;DHT22;5534;48.784;9.190;2023-06-22T13:06:54;30.40;99.90
10964;DHT22;5534;48.784;9.190;2023-06-22T13:09:20;30.40;99.90
10964;DHT22;5534;48.784;9.190;2023-06-22T13:11:46;30.40;99.90
10964;DHT22;5534;48.784;9.190;2023-06-22T13:14:11;30.50;99.90
10964;DHT22;5534;48.784;9.190;2023-06-22T13:16:37;30.40;99.90
10964;DHT22;5534;48.784;9.190;2023-06-22T13:19:04;30.40;99.90
10964;DHT22;5534;48.784;9.190;2023-06-22T13:21:30;30.40;99.90
10964;DHT22;5534;48.784;9.190;2023-06-22T13:23:56;30.40;99.90
10964;DHT22;5534;48.784;9.190;2023-06-22T13:26:22;30.40;99.90
10964;DHT22;5534;48.784;9.190;2023-06-22T13:28:52;30.50;99.90
10964;DHT22;5534;48.784;9.190;2023-06-22T13:31:18;30.60;99.90
10964;DHT22;5534;48.784;9.190;2023-06-22T13:33:44;30.70;99.90
10964;DHT22;5534;48.784;9.190;2023-06-22T13:36:11;30.70;99.90
10964;DHT22;5534;48.784;9.190;2023-06-22T13:38:37;30.80;99.90
10964;DHT22;5534;48.784;9.190;2023-06-22T13:41:08;30.80;99.90
10964;DHT22;5534;48.784;9.190;2023-06-22T13:43:34;30.70;99.90
10964;DHT22;5534;48.784;9.190;2023-06-22T13:46:00;30.80;99.90
10964;DHT22;5534;48.784;9.190;2023-06-22T13:48:26;30.70;99.90
10964;DHT22;5534;48.784;9.190;2023-06-22T13:50:52;30.90;99.90
10964;DHT22;5534;48.784;9.190;2023-06-22T13:53:18;30.90;99.90
10964;DHT22;5534;48.784;9.190;2023-06-22T13:55:44;30.90;99.90
10964;DHT22;5534;48.784;9.190;2023-06-22T13:58:09;30.90;99.90
10964;DHT22;5534;48.784;9.190;2023-06-22T14:00:35;30.90;99.90
10964;DHT22;5534;48.784;9.190;2023-06-22T14:03:01;30.90;99.90
10964;DHT22;5534;48.784;9.190;2023-06-22T14:05:27;30.90;99.90
10964;DHT22;5534;48.784;9.190;2023-06-22T14:07:52;30.90;99.90
10964;DHT22;5534;48.784;9.190;2023-06-22T14:10:18;31.00;99.90
10964;DHT22;5534;48.784;9.190;2023-06-22T14:12:44;31.00;99.90
10964;DHT22;5534;48.784;9.190;2023-06-22T14:15:10;31.10;99.90
10964;DHT22;5534;48.784;9.190;2023-06-22T14:17:36;31.00;99.90
10964;DHT22;5534;48.784;9.190;2023-06-22T14:20:01;31.20;99.90
10964;DHT22;5534;48.784;9.190;2023-06-22T14:22:30;31.30;99.90
10964;DHT22;5534;48.784;9.190;2023-06-22T14:24:56;31.40;99.90
10964;DHT22;5534;48.784;9.190;2023-06-22T14:27:24;31.40;99.90
10964;DHT22;5534;48.784;9.190;2023-06-22T14:29:49;31.50;99.90
10964;DHT22;5534;48.784;9.190;2023-06-22T14:32:15;31.40;99.90
10964;DHT22;5534;48.784;9.190;2023-06-22T14:34:41;31.40;99.90
10964;DHT22;5534;48.784;9.190;2023-06-22T14:37:07;31.40;99.90
10964;DHT22;5534;48.784;9.190;2023-06-22T14:39:35;31.40;99.90
10964;DHT22;5534;48.784;9.190;2023-06-22T14:42:01;31.40;99.90
10964;DHT22;5534;48.784;9.190;2023-06-22T14:44:29;31.50;99.50
10964;DHT22;5534;48.784;9.190;2023-06-22T14:46:55;31.60;99.30
10964;DHT22;5534;48.784;9.190;2023-06-22T14:49:24;31.60;98.50
10964;DHT22;5534;48.784;9.190;2023-06-22T14:51:50;31.60;98.80
10964;DHT22;5534;48.784;9.190;2023-06-22T14:54:16;31.70;99.00
10964;DHT22;5534;48.784;9.190;2023-06-22T14:56:42;31.80;98.30
10964;DHT22;5534;48.784;9.190;2023-06-22T14:59:09;31.80;98.30
10964;DHT22;5534;48.784;9.190;2023-06-22T15:01:35;31.80;97.90
10964;DHT22;5534;48.784;9.190;2023-06-22T15:04:01;31.90;97.50
10964;DHT22;5534;48.784;9.190;2023-06-22T15:06:27;31.80;97.40
10964;DHT22;5534;48.784;9.190;2023-06-22T15:08:53;31.60;95.20
10964;DHT22;5534;48.784;9.190;2023-06-22T15:11:19;31.50;93.80
10964;DHT22;5534;48.784;9.190;2023-06-22T15:13:45;31.40;92.70
10964;DHT22;5534;48.784;9.190;2023-06-22T15:16:11;31.30;92.30
10964;DHT22;5534;48.784;9.190;2023-06-22T15:18:36;31.40;92.10
10964;DHT22;5534;48.784;9.190;2023-06-22T15:21:03;31.40;91.70
10964;DHT22;5534;48.784;9.190;2023-06-22T15:23:30;31.40;91.90
10964;DHT22;5534;48.784;9.190;2023-06-22T15:25:56;31.40;91.70
10964;DHT22;5534;48.784;9.190;2023-06-22T15:28:25;31.50;91.10
10964;DHT22;5534;48.784;9.190;2023-06-22T15:30:51;31.50;91.40
10964;DHT22;5534;48.784;9.190;2023-06-22T15:33:17;31.60;90.20
10964;DHT22;5534;48.784;9.190;2023-06-22T15:35:43;31.60;90.40
10964;DHT22;5534;48.784;9.190;2023-06-22T15:38:09;31.60;88.10
10964;DHT22;5534;48.784;9.190;2023-06-22T15:40:35;31.60;89.00
10964;DHT22;5534;48.784;9.190;2023-06-22T15:43:01;31.60;87.80
10964;DHT22;5534;48.784;9.190;2023-06-22T15:45:27;31.50;87.60
10964;DHT22;5534;48.784;9.190;2023-06-22T15:47:53;31.40;86.40
10964;DHT22;5534;48.784;9.190;2023-06-22T15:50:21;31.50;86.30
10964;DHT22;5534;48.784;9.190;2023-06-22T15:52:47;31.50;86.20
10964;DHT22;5534;48.784;9.190;2023-06-22T15:55:18;31.60;86.40
10964;DHT22;5534;48.784;9.190;2023-06-22T15:57:44;31.60;86.90